Time;durP1;ratioP1;P1;durP2;ratioP2;P2;SDS_P1;SDS_P2;PMS_P1;PMS_P2;Temp;Humidity;BMP_temperature;BMP_pressure;BME280_temperature;BME280_humidity;BME280_pressure;Samples;Min_cycle;Max_cycle;Signal;HPM_P1;HPM_P2
2024/01/24 00:00:03;;;;;;;91.10;53.33;;;17.10;65.90;;;;;;4909646;28;95454;-80
2024/01/24 00:02:29;;;;;;;92.10;53.50;;;17.10;66.00;;;;;;4911221;28;95724;-80
2024/01/24 00:04:55;;;;;;;92.68;53.05;;;17.10;66.00;;;;;;4912776;28;96771;-80
2024/01/24 00:07:20;;;;;;;90.97;53.15;;;17.10;66.10;;;;;;4908521;28;95117;-80
2024/01/24 00:09:46;;;;;;;91.05;53.13;;;17.10;66.10;;;;;;4905600;28;94998;-79
2024/01/24 00:12:12;;;;;;;91.95;53.17;;;17.10;66.10;;;;;;4907715;28;95043;-82
2024/01/24 00:14:37;;;;;;;91.88;53.10;;;17.10;66.10;;;;;;4914040;28;94559;-83
2024/01/24 00:17:03;;;;;;;90.43;52.80;;;17.00;66.10;;;;;;4910357;28;94728;-83
2024/01/24 00:19:30;;;;;;;90.65;53.30;;;17.00;66.10;;;;;;4906205;28;94486;-82
2024/01/24 00:21:56;;;;;;;89.63;52.33;;;17.00;66.10;;;;;;4925463;28;94315;-79
2024/01/24 00:24:22;;;;;;;90.75;52.90;;;17.00;66.10;;;;;;4925411;28;98344;-78
2024/01/24 00:26:48;;;;;;;90.70;53.28;;;17.00;66.00;;;;;;4909551;28;94726;-78
2024/01/24 00:29:13;;;;;;;92.00;52.83;;;17.00;66.00;;;;;;4909314;28;96277;-79
2024/01/24 00:31:39;;;;;;;92.22;52.95;;;17.00;66.00;;;;;;4913002;28;95461;-78
2024/01/24 00:34:04;;;;;;;92.25;52.72;;;17.00;66.10;;;;;;4912887;28;95683;-78
2024/01/24 00:36:30;;;;;;;90.47;52.75;;;16.90;66.00;;;;;;4907744;28;95071;-78
2024/01/24 00:38:56;;;;;;;90.18;52.97;;;16.90;66.00;;;;;;4916436;28;94639;-77
2024/01/24 00:41:22;;;;;;;90.70;52.67;;;16.90;66.00;;;;;;4908111;28;95792;-79
2024/01/24 00:43:47;;;;;;;90.00;52.55;;;16.90;66.00;;;;;;4914630;28;96730;-80
2024/01/24 00:46:13;;;;;;;90.07;52.97;;;16.90;66.10;;;;;;4910383;28;95816;-78
2024/01/24 00:48:39;;;;;;;90.07;52.70;;;16.90;66.20;;;;;;4906239;28;95028;-79
2024/01/24 00:51:04;;;;;;;90.80;52.72;;;16.80;66.10;;;;;;4914534;28;95665;-79
2024/01/24 00:53:34;;;;;;;90.00;52.58;;;16.80;66.10;;;;;;4917199;28;100763;-78
2024/01/24 00:56:00;;;;;;;91.78;52.50;;;16.80;66.10;;;;;;4913034;28;96042;-79
2024/01/24 00:58:25;;;;;;;90.45;52.55;;;16.80;66.20;;;;;;4909362;28;95600;-79
2024/01/24 01:00:51;;;;;;;89.43;52.38;;;16.80;66.20;;;;;;4908856;28;94855;-79
2024/01/24 01:03:17;;;;;;;89.95;52.55;;;16.80;66.20;;;;;;4914850;28;96330;-80
2024/01/24 01:05:42;;;;;;;89.22;52.53;;;16.80;66.30;;;;;;4910129;28;98852;-79
2024/01/24 01:08:08;;;;;;;89.63;52.67;;;16.80;66.30;;;;;;4914451;28;95203;-79
2024/01/24 01:10:34;;;;;;;89.72;52.60;;;16.70;66.20;;;;;;4917525;28;94129;-80
2024/01/24 01:12:59;;;;;;;89.25;52.63;;;16.80;66.20;;;;;;4916535;28;95470;-80
2024/01/24 01:15:25;;;;;;;90.03;52.13;;;16.80;66.40;;;;;;4908822;28;95275;-79
2024/01/24 01:17:51;;;;;;;90.07;52.10;;;16.70;66.20;;;;;;4915828;28;96105;-80
2024/01/24 01:20:19;;;;;;;90.68;52.65;;;16.70;66.30;;;;;;4919767;28;95310;-80
2024/01/24 01:22:48;;;;;;;87.93;51.97;;;16.70;66.20;;;;;;4921406;28;96359;-81
2024/01/24 01:25:14;;;;;;;89.82;52.45;;;16.70;66.30;;;;;;4912401;28;98856;-81
2024/01/24 01:27:40;;;;;;;91.10;52.50;;;16.70;66.40;;;;;;4917774;28;94989;-81
2024/01/24 01:30:07;;;;;;;89.22;52.13;;;16.70;66.50;;;;;;4914194;28;95111;-80
2024/01/24 01:32:32;;;;;;;90.00;52.22;;;16.60;66.50;;;;;;4919131;28;95469;-79
2024/01/24 01:34:59;;;;;;;91.90;52.28;;;16.70;66.50;;;;;;4908844;28;94602;-81
2024/01/24 01:37:25;;;;;;;88.97;52.25;;;16.60;66.50;;;;;;4911614;28;96564;-81
2024/01/24 01:39:51;;;;;;;89.07;52.35;;;16.60;66.40;;;;;;4930152;28;95649;-80
2024/01/24 01:42:16;;;;;;;89.35;52.28;;;16.60;66.50;;;;;;4918586;28;96811;-79
2024/01/24 01:44:46;;;;;;;89.00;52.10;;;16.60;66.50;;;;;;4918200;28;98729;-80
2024/01/24 01:47:16;;;;;;;88.30;52.15;;;16.60;66.50;;;;;;4913431;28;95930;-80
2024/01/24 01:49:43;;;;;;;88.10;51.97;;;16.60;66.60;;;;;;4911040;28;95063;-79
2024/01/24 01:52:09;;;;;;;88.45;51.97;;;16.60;66.60;;;;;;4918233;28;96344;-79
2024/01/24 01:54:35;;;;;;;88.10;52.05;;;16.60;66.80;;;;;;4910337;28;95349;-80
2024/01/24 01:57:02;;;;;;;88.30;52.03;;;16.50;66.70;;;;;;4916105;28;99337;-80
2024/01/24 01:59:28;;;;;;;88.10;52.05;;;16.50;66.70;;;;;;4919357;28;94805;-80
2024/01/24 02:02:00;;;;;;;87.72;51.85;;;16.50;66.70;;;;;;4924566;28;99672;-80
2024/01/24 02:04:27;;;;;;;88.30;52.05;;;16.50;66.70;;;;;;4906960;28;94792;-79
2024/01/24 02:06:55;;;;;;;88.55;52.15;;;16.50;67.50;;;;;;4911331;28;96196;-79
2024/01/24 02:09:21;;;;;;;88.38;52.28;;;16.50;66.70;;;;;;4913637;28;95049;-80
2024/01/24 02:11:47;;;;;;;87.57;51.60;;;16.50;66.70;;;;;;4917637;28;97589;-84
2024/01/24 02:14:13;;;;;;;90.15;52.15;;;16.50;66.80;;;;;;4912994;28;95056;-84
2024/01/24 02:16:38;;;;;;;88.28;51.83;;;16.40;66.70;;;;;;4913230;28;95059;-84
2024/01/24 02:19:06;;;;;;;88.25;51.92;;;16.40;66.80;;;;;;4916039;28;93973;-82
2024/01/24 02:21:34;;;;;;;88.05;51.70;;;16.40;66.70;;;;;;4911832;28;98093;-84
2024/01/24 02:24:00;;;;;;;87.78;51.75;;;16.40;66.70;;;;;;4919162;28;94047;-83
2024/01/24 02:26:26;;;;;;;88.30;51.90;;;16.50;66.80;;;;;;4909603;28;94962;-83
2024/01/24 02:28:52;;;;;;;88.72;51.70;;;16.40;66.80;;;;;;4909732;28;95145;-84
2024/01/24 02:31:19;;;;;;;88.10;51.95;;;16.40;66.90;;;;;;4910473;28;101959;-83
2024/01/24 02:33:45;;;;;;;87.38;51.65;;;16.40;66.80;;;;;;4917084;28;95422;-82
2024/01/24 02:36:14;;;;;;;87.35;51.47;;;16.40;67.10;;;;;;4911995;28;94423;-82
2024/01/24 02:38:43;;;;;;;87.68;51.78;;;16.40;67.70;;;;;;4916289;28;94786;-82
2024/01/24 02:41:09;;;;;;;86.90;51.55;;;16.40;66.90;;;;;;4909009;28;94829;-83
2024/01/24 02:43:35;;;;;;;88.22;51.78;;;16.40;67.00;;;;;;4909567;28;97877;-82
2024/01/24 02:46:01;;;;;;;87.22;51.35;;;16.40;67.10;;;;;;4910264;28;94543;-82
2024/01/24 02:48:27;;;;;;;86.97;51.20;;;16.40;67.00;;;;;;4914405;28;94758;-83
2024/01/24 02:50:53;;;;;;;88.10;51.65;;;16.40;67.00;;;;;;4912731;28;97109;-82
2024/01/24 02:53:19;;;;;;;88.13;51.78;;;16.40;67.00;;;;;;4906466;28;97091;-82
2024/01/24 02:55:45;;;;;;;87.68;51.90;;;16.30;67.10;;;;;;4912175;28;95347;-82
2024/01/24 02:58:11;;;;;;;87.85;51.55;;;16.40;67.10;;;;;;4909201;28;94116;-82
2024/01/24 03:00:37;;;;;;;87.97;51.72;;;16.30;67.10;;;;;;4913639;28;96292;-81
2024/01/24 03:03:03;;;;;;;88.15;51.85;;;16.30;67.20;;;;;;4912665;28;95501;-81
2024/01/24 03:05:28;;;;;;;87.15;51.45;;;16.30;67.20;;;;;;4910677;28;94943;-81
2024/01/24 03:07:56;;;;;;;88.13;51.67;;;16.30;67.20;;;;;;4908051;28;94948;-80
2024/01/24 03:10:22;;;;;;;87.43;51.55;;;16.30;67.40;;;;;;4912772;28;96173;-81
2024/01/24 03:12:48;;;;;;;87.07;51.60;;;16.30;67.40;;;;;;4910085;28;96426;-80
2024/01/24 03:15:14;;;;;;;87.80;51.83;;;16.30;67.60;;;;;;4910799;28;94457;-81
2024/01/24 03:17:40;;;;;;;87.60;51.65;;;16.30;67.40;;;;;;4911562;28;95164;-80
2024/01/24 03:20:07;;;;;;;87.20;51.67;;;16.30;67.50;;;;;;4910065;28;96001;-83
2024/01/24 03:22:33;;;;;;;87.72;51.80;;;16.30;67.60;;;;;;4908641;28;95879;-80
2024/01/24 03:24:58;;;;;;;87.95;52.03;;;16.30;67.40;;;;;;4912262;28;95269;-79
2024/01/24 03:27:24;;;;;;;87.15;51.53;;;16.20;67.60;;;;;;4910138;28;94770;-79
2024/01/24 03:29:50;;;;;;;87.90;51.60;;;16.20;67.50;;;;;;4910367;28;98145;-80
2024/01/24 03:32:16;;;;;;;87.90;52.10;;;16.20;67.70;;;;;;4910115;28;94639;-80
2024/01/24 03:34:50;;;;;;;86.97;51.53;;;16.20;67.70;;;;;;4907282;28;96596;-80
2024/01/24 03:37:16;;;;;;;88.97;51.85;;;16.20;67.60;;;;;;4926420;28;93845;-80
2024/01/24 03:39:42;;;;;;;88.00;51.72;;;16.20;67.90;;;;;;4910235;28;95838;-80
2024/01/24 03:42:07;;;;;;;88.32;51.90;;;16.20;67.80;;;;;;4905630;28;96191;-79
2024/01/24 03:44:33;;;;;;;87.68;51.53;;;16.20;67.90;;;;;;4908039;28;96255;-80
2024/01/24 03:46:58;;;;;;;87.38;51.65;;;16.20;67.90;;;;;;4909085;28;95169;-79
2024/01/24 03:49:24;;;;;;;87.55;51.70;;;16.20;67.70;;;;;;4914429;28;98315;-81
2024/01/24 03:51:50;;;;;;;90.07;51.50;;;16.20;68.10;;;;;;4910088;28;97948;-81
2024/01/24 03:54:15;;;;;;;90.05;52.00;;;16.20;67.90;;;;;;4911322;28;95953;-80
2024/01/24 03:56:41;;;;;;;88.50;51.78;;;16.10;67.80;;;;;;4907933;28;94803;-78
2024/01/24 03:59:07;;;;;;;87.70;51.67;;;16.20;67.80;;;;;;4912449;28;99544;-78
2024/01/24 04:01:32;;;;;;;89.03;51.88;;;16.20;67.80;;;;;;4909029;28;94343;-78
2024/01/24 04:03:58;;;;;;;89.15;51.75;;;16.20;67.80;;;;;;4905769;28;95353;-78
2024/01/24 04:06:24;;;;;;;88.65;51.55;;;16.20;67.90;;;;;;4909569;28;95426;-78
2024/01/24 04:08:49;;;;;;;88.10;51.67;;;16.10;67.80;;;;;;4907729;28;95818;-78
2024/01/24 04:11:15;;;;;;;87.57;51.45;;;16.10;67.80;;;;;;4907668;28;96597;-78
2024/01/24 04:13:44;;;;;;;88.78;51.72;;;16.10;67.80;;;;;;4914106;28;95947;-79
2024/01/24 04:16:10;;;;;;;90.13;52.03;;;16.10;67.70;;;;;;4908673;28;96425;-80
2024/01/24 04:18:37;;;;;;;88.47;51.85;;;16.10;67.80;;;;;;4907443;28;95358;-78
2024/01/24 04:21:03;;;;;;;88.45;52.13;;;16.20;67.80;;;;;;4912030;28;96044;-79
2024/01/24 04:23:28;;;;;;;88.03;51.85;;;16.10;67.70;;;;;;4905241;28;96611;-78
2024/01/24 04:25:54;;;;;;;90.13;52.30;;;16.10;67.60;;;;;;4911072;28;94748;-79
2024/01/24 04:28:19;;;;;;;89.70;51.65;;;16.10;67.60;;;;;;4912459;28;97989;-79
2024/01/24 04:30:45;;;;;;;90.20;52.30;;;16.10;67.70;;;;;;4907634;28;98845;-79
2024/01/24 04:33:13;;;;;;;89.75;52.08;;;16.10;68.40;;;;;;4906267;28;99728;-79
2024/01/24 04:35:38;;;;;;;88.72;51.97;;;16.10;67.70;;;;;;4912339;28;94760;-79
2024/01/24 04:38:04;;;;;;;88.25;51.75;;;16.00;67.70;;;;;;4910876;28;95368;-79
2024/01/24 04:40:30;;;;;;;89.35;52.05;;;16.00;67.70;;;;;;4905895;28;94842;-79
2024/01/24 04:42:56;;;;;;;89.03;52.00;;;16.10;67.80;;;;;;4912532;28;94601;-80
2024/01/24 04:45:21;;;;;;;91.03;52.30;;;16.10;67.80;;;;;;4926433;28;95412;-79
2024/01/24 04:47:47;;;;;;;90.10;52.20;;;16.00;67.80;;;;;;4910765;28;95273;-79
2024/01/24 04:50:13;;;;;;;88.85;52.08;;;16.10;67.80;;;;;;4910660;28;95907;-80
2024/01/24 04:52:39;;;;;;;90.53;51.75;;;16.00;67.70;;;;;;4911235;28;94942;-79
2024/01/24 04:55:10;;;;;;;93.57;52.45;;;16.10;67.80;;;;;;4906662;28;94885;-78
2024/01/24 04:57:36;;;;;;;90.72;52.25;;;16.00;67.60;;;;;;4928747;28;99304;-79
2024/01/24 05:00:02;;;;;;;92.05;52.60;;;16.00;67.70;;;;;;4903553;28;96704;-79
2024/01/24 05:02:27;;;;;;;89.82;51.95;;;16.00;67.80;;;;;;4910035;28;98787;-78
2024/01/24 05:04:53;;;;;;;90.10;52.03;;;16.00;67.70;;;;;;4916142;28;94627;-79
2024/01/24 05:07:19;;;;;;;90.05;52.28;;;16.00;67.60;;;;;;4905767;28;96058;-78
2024/01/24 05:09:45;;;;;;;91.43;52.72;;;16.00;67.60;;;;;;4906906;28;95756;-79
2024/01/24 05:12:10;;;;;;;91.55;52.72;;;16.00;67.70;;;;;;4910842;28;95144;-79
2024/01/24 05:14:36;;;;;;;90.40;52.30;;;16.00;67.70;;;;;;4916438;28;94119;-78
2024/01/24 05:17:02;;;;;;;89.55;51.95;;;16.00;67.60;;;;;;4905992;28;95454;-78
2024/01/24 05:19:27;;;;;;;91.35;51.88;;;16.00;67.70;;;;;;4912522;28;98311;-78
2024/01/24 05:21:53;;;;;;;95.93;53.20;;;15.90;67.60;;;;;;4909068;28;95834;-78
2024/01/24 05:24:19;;;;;;;92.25;52.70;;;16.00;67.80;;;;;;4919204;28;95248;-78
2024/01/24 05:26:46;;;;;;;95.07;53.00;;;16.00;67.70;;;;;;4909684;28;95257;-78
2024/01/24 05:29:11;;;;;;;91.15;52.50;;;16.00;67.80;;;;;;4916487;28;95553;-78
2024/01/24 05:31:38;;;;;;;94.55;53.10;;;15.90;67.60;;;;;;4916633;28;94595;-77
2024/01/24 05:34:04;;;;;;;96.63;53.08;;;16.00;67.70;;;;;;4914965;28;94849;-78
2024/01/24 05:36:29;;;;;;;91.82;52.83;;;15.90;67.60;;;;;;4910776;28;95016;-78
2024/01/24 05:38:55;;;;;;;94.93;53.17;;;15.90;68.00;;;;;;4926850;28;97321;-78
2024/01/24 05:41:21;;;;;;;93.18;52.40;;;15.90;67.70;;;;;;4914813;28;95247;-78
2024/01/24 05:43:46;;;;;;;92.88;52.53;;;15.90;67.70;;;;;;4915777;28;94762;-78
2024/01/24 05:46:12;;;;;;;95.57;52.42;;;15.90;67.60;;;;;;4913423;28;97503;-79
2024/01/24 05:48:37;;;;;;;93.20;53.00;;;15.90;67.60;;;;;;4915214;28;95853;-79
2024/01/24 05:51:03;;;;;;;95.90;52.83;;;15.90;67.60;;;;;;4907583;28;95062;-79
2024/01/24 05:53:29;;;;;;;94.13;53.08;;;15.90;67.60;;;;;;4910771;28;95099;-78
2024/01/24 05:55:55;;;;;;;96.65;53.30;;;15.90;67.60;;;;;;4911429;28;95917;-78
2024/01/24 05:58:20;;;;;;;95.82;53.13;;;15.90;67.60;;;;;;4914410;28;95182;-78
2024/01/24 06:00:46;;;;;;;96.18;53.53;;;15.90;67.60;;;;;;4914216;28;95179;-78
2024/01/24 06:03:12;;;;;;;94.60;52.70;;;15.90;67.60;;;;;;4911102;28;94328;-78
2024/01/24 06:05:38;;;;;;;94.55;53.20;;;15.90;67.60;;;;;;4909537;28;96803;-79
2024/01/24 06:08:05;;;;;;;98.10;53.95;;;15.80;67.70;;;;;;4916430;28;94720;-79
2024/01/24 06:10:31;;;;;;;95.68;53.20;;;15.80;67.80;;;;;;4916033;28;96650;-80
2024/01/24 06:12:57;;;;;;;96.43;53.33;;;15.80;67.80;;;;;;4908813;28;95673;-79
2024/01/24 06:15:23;;;;;;;99.57;53.60;;;15.80;67.80;;;;;;4908820;28;94860;-78
2024/01/24 06:17:48;;;;;;;96.30;53.65;;;15.80;68.10;;;;;;4913658;28;94881;-81
2024/01/24 06:20:15;;;;;;;96.07;52.92;;;15.80;68.30;;;;;;4910118;28;94999;-81
2024/01/24 06:22:41;;;;;;;94.00;53.20;;;15.80;68.50;;;;;;4910471;28;95169;-83
2024/01/24 06:25:07;;;;;;;101.28;53.78;;;15.80;68.60;;;;;;4910279;28;99905;-80
2024/01/24 06:27:35;;;;;;;102.35;53.80;;;15.80;68.60;;;;;;4916761;28;94928;-81
2024/01/24 06:30:00;;;;;;;93.10;53.40;;;15.80;68.60;;;;;;4914731;28;95001;-78
2024/01/24 06:32:26;;;;;;;96.63;53.40;;;15.80;68.80;;;;;;4913439;28;94765;-79
2024/01/24 06:34:52;;;;;;;95.40;53.33;;;15.80;68.90;;;;;;4912929;28;96899;-79
2024/01/24 06:37:17;;;;;;;101.38;53.92;;;15.80;68.80;;;;;;4912937;28;95086;-79
2024/01/24 06:39:43;;;;;;;97.25;53.78;;;15.80;68.70;;;;;;4913031;28;94873;-79
2024/01/24 06:42:10;;;;;;;98.30;54.05;;;15.80;69.00;;;;;;4915033;28;95331;-79
2024/01/24 06:44:36;;;;;;;100.13;53.78;;;15.80;69.20;;;;;;4911966;28;94907;-80
2024/01/24 06:47:01;;;;;;;105.35;54.55;;;15.80;69.10;;;;;;4912132;28;95363;-78
2024/01/24 06:49:27;;;;;;;101.30;54.35;;;15.80;69.80;;;;;;4912417;28;94548;-77
2024/01/24 06:51:53;;;;;;;94.72;53.65;;;15.80;70.00;;;;;;4904885;28;95136;-77
2024/01/24 06:54:18;;;;;;;95.95;53.60;;;15.80;70.00;;;;;;4912755;28;96510;-77
2024/01/24 06:56:44;;;;;;;97.22;54.28;;;15.80;69.50;;;;;;4914707;28;94980;-79
2024/01/24 06:59:11;;;;;;;99.68;54.10;;;15.80;69.50;;;;;;4912894;28;95487;-80
2024/01/24 07:01:37;;;;;;;99.82;53.83;;;15.80;69.50;;;;;;4909638;28;95181;-80
2024/01/24 07:04:02;;;;;;;97.90;54.15;;;15.80;69.40;;;;;;4911709;28;94806;-80
2024/01/24 07:06:28;;;;;;;103.20;54.67;;;15.80;69.30;;;;;;4911177;28;96662;-80
2024/01/24 07:08:54;;;;;;;100.30;54.53;;;15.80;69.50;;;;;;4910061;28;94516;-80
2024/01/24 07:11:19;;;;;;;101.05;54.25;;;15.80;69.50;;;;;;4911415;28;94537;-80
2024/01/24 07:13:45;;;;;;;100.82;54.33;;;15.80;69.50;;;;;;4912271;28;94673;-80
2024/01/24 07:16:10;;;;;;;99.20;54.25;;;15.70;69.30;;;;;;4912951;28;93965;-81
2024/01/24 07:18:37;;;;;;;97.25;54.30;;;15.70;69.20;;;;;;4910241;28;94700;-80
2024/01/24 07:21:06;;;;;;;100.78;54.28;;;15.70;69.10;;;;;;4912119;28;94857;-77
2024/01/24 07:23:32;;;;;;;97.07;54.15;;;15.70;69.00;;;;;;4906307;28;96672;-76
2024/01/24 07:25:58;;;;;;;98.50;54.50;;;15.70;69.10;;;;;;4908527;28;96010;-77
2024/01/24 07:28:24;;;;;;;104.70;54.25;;;15.70;69.00;;;;;;4913886;28;94970;-77
2024/01/24 07:30:49;;;;;;;99.30;54.50;;;15.70;69.00;;;;;;4913342;28;94973;-77
2024/01/24 07:33:15;;;;;;;100.30;53.80;;;15.70;69.00;;;;;;4908862;28;94976;-77
2024/01/24 07:35:41;;;;;;;97.97;54.58;;;15.70;68.90;;;;;;4910627;28;95998;-77
2024/01/24 07:38:07;;;;;;;100.20;55.20;;;15.70;68.90;;;;;;4933330;28;94813;-77
2024/01/24 07:40:32;;;;;;;101.95;54.25;;;15.70;68.90;;;;;;4913568;28;94314;-79
2024/01/24 07:42:59;;;;;;;99.72;54.25;;;15.70;68.90;;;;;;4910020;28;95670;-78
2024/01/24 07:45:25;;;;;;;100.10;54.47;;;15.70;68.90;;;;;;4898342;28;96841;-80
2024/01/24 07:47:51;;;;;;;98.55;54.35;;;15.90;69.40;;;;;;4913970;28;95924;-85
2024/01/24 07:50:17;;;;;;;102.95;54.65;;;15.90;69.20;;;;;;4909860;28;94106;-81
2024/01/24 07:52:43;;;;;;;103.10;54.72;;;16.00;68.80;;;;;;4908763;28;95766;-85
2024/01/24 07:55:12;;;;;;;101.53;54.13;;;16.00;68.50;;;;;;4909797;28;94745;-84
2024/01/24 07:57:37;;;;;;;96.07;54.28;;;16.00;68.30;;;;;;4911776;28;95446;-84
2024/01/24 08:00:04;;;;;;;100.13;54.42;;;16.10;68.20;;;;;;4911508;28;95177;-84
2024/01/24 08:02:30;;;;;;;103.97;54.42;;;16.10;68.00;;;;;;4910248;28;95306;-85
2024/01/24 08:04:57;;;;;;;99.88;55.00;;;16.10;67.80;;;;;;4914871;28;95152;-85
2024/01/24 08:07:23;;;;;;;100.32;55.13;;;16.10;67.80;;;;;;4915937;28;95501;-83
2024/01/24 08:09:49;;;;;;;100.35;54.92;;;16.10;67.70;;;;;;4907264;28;95617;-81
2024/01/24 08:12:14;;;;;;;100.28;54.55;;;16.10;68.00;;;;;;4912804;28;99936;-77
2024/01/24 08:14:40;;;;;;;101.88;54.35;;;16.10;68.20;;;;;;4906050;28;95365;-80
2024/01/24 08:17:08;;;;;;;106.97;55.28;;;16.10;68.80;;;;;;4908192;28;95169;-78
2024/01/24 08:19:33;;;;;;;104.20;54.75;;;16.10;69.80;;;;;;4907376;28;95982;-80
2024/01/24 08:21:59;;;;;;;106.55;54.63;;;16.20;69.20;;;;;;4908974;28;94777;-81
2024/01/24 08:24:25;;;;;;;99.47;54.13;;;16.30;69.20;;;;;;4906237;28;95392;-79
2024/01/24 08:26:51;;;;;;;101.65;55.17;;;16.40;69.00;;;;;;4905768;28;94697;-78
2024/01/24 08:29:18;;;;;;;103.07;54.78;;;16.40;68.70;;;;;;4910438;28;94181;-79
2024/01/24 08:31:44;;;;;;;103.60;55.13;;;16.50;68.50;;;;;;4911317;28;96129;-80
2024/01/24 08:34:09;;;;;;;102.30;55.15;;;16.60;68.30;;;;;;4909308;28;96932;-81
2024/01/24 08:36:36;;;;;;;104.35;54.55;;;16.60;68.20;;;;;;4908558;28;95985;-83
2024/01/24 08:39:03;;;;;;;98.32;54.60;;;16.70;68.00;;;;;;4909087;28;95994;-82
2024/01/24 08:41:29;;;;;;;102.30;55.17;;;16.70;68.00;;;;;;4913514;28;94743;-79
2024/01/24 08:43:57;;;;;;;103.75;55.53;;;16.80;68.00;;;;;;4906537;28;94759;-81
2024/01/24 08:46:23;;;;;;;106.28;55.20;;;16.80;67.80;;;;;;4905197;28;95387;-80
2024/01/24 08:48:49;;;;;;;101.45;55.40;;;16.80;67.50;;;;;;4906635;28;94655;-82
2024/01/24 08:51:15;;;;;;;102.47;55.33;;;16.90;67.50;;;;;;4907046;28;96124;-80
2024/01/24 08:53:40;;;;;;;103.53;55.90;;;16.90;67.30;;;;;;4906338;28;96204;-81
2024/01/24 08:56:06;;;;;;;102.20;54.70;;;16.90;67.20;;;;;;4908126;28;95218;-80
2024/01/24 08:58:32;;;;;;;103.55;55.38;;;17.00;67.20;;;;;;4912891;28;95568;-82
2024/01/24 09:00:58;;;;;;;100.18;55.00;;;17.00;67.10;;;;;;4915309;28;99192;-81
2024/01/24 09:03:24;;;;;;;102.13;55.22;;;17.00;67.10;;;;;;4908794;28;95201;-81
2024/01/24 09:05:51;;;;;;;99.80;55.50;;;17.10;66.90;;;;;;4915301;28;94962;-81
2024/01/24 09:08:16;;;;;;;101.55;55.35;;;17.10;66.80;;;;;;4912661;28;94976;-80
2024/01/24 09:10:42;;;;;;;99.88;55.50;;;17.10;66.50;;;;;;4912755;28;95877;-80
2024/01/24 09:13:08;;;;;;;100.43;54.72;;;17.10;66.70;;;;;;4914329;28;94546;-78
2024/01/24 09:15:34;;;;;;;101.68;55.25;;;17.10;67.00;;;;;;4916187;28;95862;-81
2024/01/24 09:18:00;;;;;;;104.80;55.53;;;17.10;67.00;;;;;;4913865;28;93990;-83
2024/01/24 09:20:26;;;;;;;101.80;55.53;;;17.10;66.80;;;;;;4909703;28;96644;-81
2024/01/24 09:22:51;;;;;;;104.78;55.45;;;17.10;66.70;;;;;;4908814;28;95288;-81
2024/01/24 09:25:19;;;;;;;102.78;55.45;;;17.20;66.70;;;;;;4912970;28;96772;-86
2024/01/24 09:27:45;;;;;;;102.65;55.35;;;17.20;66.80;;;;;;4911317;28;94737;-77
2024/01/24 09:30:11;;;;;;;103.57;55.45;;;17.20;66.90;;;;;;4906037;28;96771;-78
2024/01/24 09:32:36;;;;;;;103.80;56.13;;;17.20;67.00;;;;;;4908777;28;96150;-77
2024/01/24 09:35:03;;;;;;;100.25;55.40;;;17.20;66.60;;;;;;4912462;28;96324;-85
2024/01/24 09:37:29;;;;;;;104.25;55.83;;;17.30;66.40;;;;;;4927405;28;96491;-79
2024/01/24 09:39:56;;;;;;;105.68;55.28;;;17.30;66.10;;;;;;4912439;28;95599;-78
2024/01/24 09:42:28;;;;;;;100.78;55.50;;;17.40;66.00;;;;;;4913709;28;95300;-82
2024/01/24 09:44:58;;;;;;;103.53;56.13;;;17.50;65.80;;;;;;4916903;28;94387;-87
2024/01/24 09:47:24;;;;;;;99.72;55.55;;;17.60;65.80;;;;;;4913111;28;94704;-79
2024/01/24 09:49:51;;;;;;;102.18;55.53;;;17.60;65.50;;;;;;4911163;28;97732;-79
2024/01/24 09:52:23;;;;;;;105.75;55.72;;;17.60;65.30;;;;;;4909456;28;96105;-76
2024/01/24 09:54:53;;;;;;;104.30;56.25;;;17.70;65.10;;;;;;4913536;28;95044;-76
2024/01/24 09:57:21;;;;;;;105.53;56.70;;;17.70;65.10;;;;;;4914256;28;95718;-76
2024/01/24 09:59:48;;;;;;;109.32;56.63;;;17.70;65.00;;;;;;4921197;28;98592;-78
2024/01/24 10:02:14;;;;;;;104.68;55.58;;;17.70;64.90;;;;;;4911208;28;98509;-78
2024/01/24 10:04:43;;;;;;;100.45;55.53;;;17.70;64.80;;;;;;4911025;28;95582;-77
2024/01/24 10:07:10;;;;;;;106.20;56.03;;;17.80;65.00;;;;;;4909364;28;96014;-77
2024/01/24 10:09:36;;;;;;;105.05;55.63;;;17.80;64.80;;;;;;4904741;28;95013;-76
2024/01/24 10:12:03;;;;;;;104.25;56.00;;;17.70;64.80;;;;;;4907510;28;95220;-76
2024/01/24 10:14:29;;;;;;;107.15;55.80;;;17.80;64.70;;;;;;4908502;28;95906;-80
2024/01/24 10:16:55;;;;;;;101.82;56.00;;;17.80;64.70;;;;;;4911816;28;96208;-81
2024/01/24 10:19:24;;;;;;;105.90;56.65;;;17.80;64.70;;;;;;4913864;28;94984;-80
2024/01/24 10:21:54;;;;;;;107.45;55.58;;;17.70;64.80;;;;;;4910778;28;95307;-83
2024/01/24 10:24:21;;;;;;;106.93;56.22;;;17.70;65.60;;;;;;4919131;28;98932;-82
2024/01/24 10:26:46;;;;;;;106.28;57.72;;;17.70;64.80;;;;;;4916041;28;95221;-80
2024/01/24 10:29:13;;;;;;;106.03;57.65;;;17.80;64.90;;;;;;4910278;28;95305;-81
2024/01/24 10:31:38;;;;;;;107.18;57.80;;;17.80;64.90;;;;;;4919677;28;94000;-80
2024/01/24 10:36:40;;;;;;;106.78;57.13;;;17.90;64.50;;;;;;4846260;26;95235;-73
2024/01/24 10:39:09;;;;;;;107.03;57.17;;;17.90;64.10;;;;;;4873368;28;95683;-76
2024/01/24 10:41:42;;;;;;;104.32;56.83;;;18.00;64.00;;;;;;4864851;28;94984;-74
2024/01/24 10:44:09;;;;;;;105.65;57.53;;;18.00;63.70;;;;;;4906267;23;95286;-81
2024/01/24 10:46:37;;;;;;;104.72;57.45;;;18.10;63.80;;;;;;4896668;28;94856;-82
2024/01/24 10:49:03;;;;;;;101.80;57.10;;;18.10;63.80;;;;;;4897172;28;95587;-81
2024/01/24 10:51:30;;;;;;;106.57;57.03;;;18.10;64.00;;;;;;4893022;28;98188;-80
2024/01/24 10:53:56;;;;;;;106.32;56.50;;;18.20;63.70;;;;;;4896082;28;95685;-78
2024/01/24 10:56:24;;;;;;;110.18;57.08;;;18.20;63.60;;;;;;4893027;28;93982;-81
2024/01/24 10:58:51;;;;;;;104.88;57.08;;;18.30;63.50;;;;;;4897732;28;96003;-84
2024/01/24 11:01:17;;;;;;;106.47;57.08;;;18.40;63.00;;;;;;4894419;28;94694;-86
2024/01/24 11:03:45;;;;;;;105.05;56.85;;;18.40;62.90;;;;;;4892729;28;96302;-86
2024/01/24 11:06:16;;;;;;;107.18;56.95;;;18.40;62.80;;;;;;4898250;28;95830;-87
2024/01/24 11:08:48;;;;;;;107.50;57.33;;;18.40;64.80;;;;;;4901420;28;95292;-86
2024/01/24 11:11:17;;;;;;;107.05;56.95;;;18.40;63.80;;;;;;4900142;28;94661;-87
2024/01/24 11:13:43;;;;;;;104.75;57.08;;;18.50;63.30;;;;;;4898255;28;94265;-86
2024/01/24 11:16:28;;;;;;;107.25;56.83;;;18.50;63.10;;;;;;4899134;28;94487;-86
2024/01/24 11:18:59;;;;;;;104.22;56.53;;;18.60;63.10;;;;;;4896884;28;95661;-84
2024/01/24 11:21:28;;;;;;;106.40;57.05;;;18.70;62.90;;;;;;4899786;28;94998;-86
2024/01/24 11:23:53;;;;;;;105.00;56.65;;;18.70;62.70;;;;;;4897615;28;94209;-86
2024/01/24 11:26:19;;;;;;;107.95;56.75;;;18.80;63.00;;;;;;4895936;28;94442;-86
2024/01/24 11:28:46;;;;;;;107.47;56.83;;;18.80;62.40;;;;;;4900604;28;95866;-80
2024/01/24 11:31:12;;;;;;;108.88;57.05;;;18.90;62.50;;;;;;4889602;28;95688;-81
2024/01/24 11:34:09;;;;;;;108.97;56.90;;;18.80;62.30;;;;;;4890610;28;99240;-82
2024/01/24 11:36:50;;;;;;;110.35;57.05;;;18.70;62.40;;;;;;4890050;28;94876;-72
2024/01/24 11:39:33;;;;;;;106.80;56.30;;;18.70;62.70;;;;;;4878048;28;96781;-74
2024/01/24 11:42:25;;;;;;;105.72;56.58;;;18.70;63.10;;;;;;4886040;28;95190;-75
2024/01/24 11:45:16;;;;;;;105.85;56.70;;;18.60;63.20;;;;;;4901130;28;94800;-77
2024/01/24 11:47:43;;;;;;;108.10;56.40;;;18.70;63.40;;;;;;4884955;28;94571;-75
2024/01/24 11:50:09;;;;;;;108.47;56.25;;;18.60;63.30;;;;;;4894261;28;95937;-75
2024/01/24 11:52:35;;;;;;;106.63;56.45;;;18.60;63.20;;;;;;4887984;28;96713;-76
2024/01/24 11:55:01;;;;;;;109.60;56.22;;;18.60;63.30;;;;;;4891156;28;97012;-84
2024/01/24 11:57:28;;;;;;;104.35;56.63;;;18.60;63.10;;;;;;4892833;28;96890;-84
2024/01/24 11:59:53;;;;;;;105.57;56.10;;;18.70;62.10;;;;;;4894116;28;96605;-78
2024/01/24 12:02:19;;;;;;;106.03;56.97;;;18.70;62.60;;;;;;4892144;28;97654;-79
2024/01/24 12:04:49;;;;;;;103.68;56.55;;;18.70;62.60;;;;;;4891185;28;94971;-77
2024/01/24 12:07:15;;;;;;;109.63;57.33;;;18.70;62.70;;;;;;4886927;28;95596;-77
2024/01/24 12:09:41;;;;;;;109.28;56.92;;;18.70;62.60;;;;;;4891007;28;96893;-76
2024/01/24 12:12:09;;;;;;;108.80;56.85;;;18.70;62.80;;;;;;4891160;28;98331;-76
2024/01/24 12:14:35;;;;;;;106.47;56.55;;;18.70;62.60;;;;;;4890660;28;95054;-76
2024/01/24 12:17:07;;;;;;;105.35;56.70;;;18.70;62.90;;;;;;4891851;28;97445;-75
2024/01/24 12:19:33;;;;;;;107.38;56.72;;;18.70;62.60;;;;;;4896079;28;99048;-76
2024/01/24 12:22:00;;;;;;;106.63;56.45;;;18.70;62.40;;;;;;4888417;28;98964;-79